METAR AND TAF INFORMATION
METAR FOR UATG
ADDS - METARS form results

(1213 UTC 17 June 2019)
Data provider http://aviationweather.gov/metar/data/
 
METAR text: UATG 171200Z 01006MPS 340V040 9999 SCT033CB 32/09 Q1008 R32/CLRD70 NOSIG RMK QFE758/1011
Conditions at: UATG (ATYRAU , KZ) observed 1200 UTC 17 June 2019
Temperature: 32.0°C (90°F)
Dewpoint: 9.0°C (48°F) [RH = 24%]
Pressure (altimeter): 29.76 inches Hg (1008.0 mb)
Winds: from the N (10 degrees) at 14 MPH (12 knots; 6.2 m/s)
Visibility: 6 or more miles (10+ km)
Ceiling: at least 12,000 feet AGL
Clouds: scattered clouds at 3300 feet AGL
Weather: no significant weather observed at this time

METAR text: UATG 171130Z 03005MPS 290V090 9999 SCT033CB 32/09 Q1008 R32/CLRD70 NOSIG RMK QFE758/1011
Conditions at: UATG (ATYRAU , KZ) observed 1130 UTC 17 June 2019
Temperature: 32.0°C (90°F)
Dewpoint: 9.0°C (48°F) [RH = 24%]
Pressure (altimeter): 29.76 inches Hg (1008.0 mb)
Winds: from the NNE (30 degrees) at 12 MPH (10 knots; 5.1 m/s)
Visibility: 6 or more miles (10+ km)
Ceiling: at least 12,000 feet AGL
Clouds: scattered clouds at 3300 feet AGL
Weather: no significant weather observed at this time

Forecast for: UATG (ATYRAU , KZ)
Text: TAF UATG 171102Z 1712/1812 01008MPS 9999 BKN030CB TX33/1811Z TN19/1801Z
Forecast period: 1200 to 1800 UTC 17 June 2019
Forecast type: FROM: standard forecast or significant change
Winds: from the N (10 degrees) at 18 MPH (16 knots; 8.2 m/s)
Visibility: 6 or more miles 10+ km)
Ceiling: 3000 feet AGL
Clouds: broken clouds at 3000 feet AGL
Weather: no significant weather forecast for this period
Text: TEMPO 1712/1718 VRB16MPS 3100 -TSRA SQ
Forecast period: 1200 to 1800 UTC 17 June 2019
Forecast type: TEMPORARY: The following changes expected for less than half the time period
Winds: variable direction winds at 36 MPH (31 knots; 15.9 m/s)
Visibility: 1.93 miles (3.11 km)
Ceiling: unknown
Clouds: missing
Weather: -TSRA SQ  (light rain associated with thunderstorm(s), squal)
Text: BECMG 1718/1720 VRB03MPS
Forecast period: 1800 UTC 17 June 2019 to 1200 UTC 18 June 2019
Forecast type: BECOMING: Conditions expected to become as follows by 2000 UTC 17 June 2019
Winds: variable direction winds at 7 MPH (6 knots; 3.1 m/s)
Visibility: 6 or more miles 10+ km)
Ceiling: 3000 feet AGL
Clouds: broken clouds at 3000 feet AGL
Weather: no significant weather forecast for this period

 AIRPORT MAP

 RUNWAY INFORMATION

 AIRPORT FREQUENCIES
Type APP Name APP Frequency 123.7 MHZ
Type TWR Name TWR Frequency 118.1 MHZ

 AIRPORT NEAR NAVIGATION AIDS
Type VOR-DME Name Atyrau Frequency 112300 KHZ
Type NDB Name Atyrau Frequency 315 KHZ
Type NDB Name Atyrau Frequency 315 KHZ



2018 Air Astana Virtual Airline